Bryce, UT

7:49 AM MDT on August 22, 2014 (GMT -0600)
Bryce Canyon | Change Station
CLOSE
Current Station
Airport
Location: Bryce Canyon,
Elevation: 7585 ft
Nearby Weather Stations

Elev 7585 ft 37.71 °N, 112.15 °W | Updated 56 minutes ago

Overcast
Overcast
44 °F
Feels Like 42 °F
N
4
Wind Variable Wind from WNW

Today
High -- | Low -- °F
--% Chance of Precip.
Yesterday
High -- | Low -- °F
Precip. -- in
6:50 AM 8:11 PM
Waning Crescent, 8% visible
Pressure 30.01 in
Visibility 10.0 miles
Clouds Overcast 7500 ft
Windchill 42 °F
Dew Point 42 °F
Humidity 93%
Rainfall 0.00 in
Snow Depth 4 in
UV 0 out of 12
Pollen 6.90 out of 12
Air Quality Not available.
Flu Activity Not available.
METAR KBCE 221253Z AUTO 29003KT 10SM OVC075 07/06 A3027 RMK AO2 SLP162 T00670056

More Conditions Fewer Conditions

Pressure 30.01 in
Visibility 10.0 miles
Clouds Overcast 7500 ft
Windchill 42 °F
Dew Point 42 °F
Humidity 93%
Rainfall 0.00 in
Snow Depth 4 in
UV 0 out of 12
Pollen 6.90 out of 12
Air Quality Not available.
Flu Activity Not available.
METAR KBCE 221253Z AUTO 29003KT 10SM OVC075 07/06 A3027 RMK AO2 SLP162 T00670056

More Conditions Fewer Conditions

10-Day Weather Forecast

Almanac

Astronomy

Aug. 22, 2014 Rise Set
Actual Time 6:50 AM MDT 8:11 PM MDT
Civil Twilight 6:22 AM MDT 8:39 PM MDT
Nautical Twilight 5:49 AM MDT 9:12 PM MDT
Astronomical Twilight 5:15 AM MDT 9:46 PM MDT
Moon 4:17 AM MDT 6:21 PM MDT
Length of Visible Light 14h 16m
Length of Day
13h 21m
Tomorrow will be 2m 13s shorter.
Waning Crescent, 8% of the Moon is Illuminated
Today
Waning Crescent
Aug 25
New
Sep 2
First Quarter
Sep 8
Full
Sep 15
Last Quarter

Today's Extremes

State Highs State Lows

Community

WunderPhotos

Upload Photos

1,746,168 photos uploaded!

Nearby

Snow Depth

Station Depth Elevation
Agua Canyon 4 in 8900 ft
Clayton Springs 0 in 10000 ft
Long Valley Jct 0 in 7360 ft
Merchant Valley 0 in 8750 ft
Donkey Reservoir 0 in 9800 ft

Earthquake Activity

City Distance Mag. Time & Date
No recent earthquake activity has been reported nearby.
Minimum magnitude displayed is 2.5.

Coastal Water Temperatures

Place Temperature
No Stations Reporting

Nearby Weather Stations